sensor_id;sensor_type;location;lat;lon;timestamp;P1;durP1;ratioP1;P2;durP2;ratioP2
64342;SDS011;50675;53.530;-6.312;2023-05-07T00:07:02;8.52;;;4.55;;
64342;SDS011;50675;53.530;-6.312;2023-05-07T00:20:26;11.07;;;5.50;;
64342;SDS011;50675;53.530;-6.312;2023-05-07T00:22:52;10.77;;;5.05;;
64342;SDS011;50675;53.530;-6.312;2023-05-07T00:25:19;12.40;;;5.15;;
64342;SDS011;50675;53.530;-6.312;2023-05-07T00:27:47;13.27;;;5.03;;
64342;SDS011;50675;53.530;-6.312;2023-05-07T00:30:24;8.25;;;4.68;;
64342;SDS011;50675;53.530;-6.312;2023-05-07T00:32:53;8.93;;;4.80;;
64342;SDS011;50675;53.530;-6.312;2023-05-07T00:35:19;9.23;;;4.55;;
64342;SDS011;50675;53.530;-6.312;2023-05-07T00:37:45;11.13;;;4.25;;
64342;SDS011;50675;53.530;-6.312;2023-05-07T00:40:16;8.57;;;4.63;;
64342;SDS011;50675;53.530;-6.312;2023-05-07T00:42:42;9.90;;;4.80;;
64342;SDS011;50675;53.530;-6.312;2023-05-07T00:45:15;9.48;;;4.55;;
64342;SDS011;50675;53.530;-6.312;2023-05-07T00:47:48;14.18;;;4.93;;
64342;SDS011;50675;53.530;-6.312;2023-05-07T00:50:17;9.43;;;5.07;;
64342;SDS011;50675;53.530;-6.312;2023-05-07T00:52:44;9.48;;;4.47;;
64342;SDS011;50675;53.530;-6.312;2023-05-07T00:55:10;10.70;;;4.82;;
64342;SDS011;50675;53.530;-6.312;2023-05-07T00:57:39;9.18;;;5.00;;
64342;SDS011;50675;53.530;-6.312;2023-05-07T01:00:09;12.68;;;5.28;;
64342;SDS011;50675;53.530;-6.312;2023-05-07T01:02:39;10.65;;;4.35;;
64342;SDS011;50675;53.530;-6.312;2023-05-07T01:05:18;9.70;;;4.03;;
64342;SDS011;50675;53.530;-6.312;2023-05-07T01:07:54;10.23;;;4.85;;
64342;SDS011;50675;53.530;-6.312;2023-05-07T01:10:27;13.50;;;4.78;;
64342;SDS011;50675;53.530;-6.312;2023-05-07T01:12:56;9.25;;;4.93;;
64342;SDS011;50675;53.530;-6.312;2023-05-07T01:15:30;11.35;;;5.13;;
64342;SDS011;50675;53.530;-6.312;2023-05-07T01:18:05;10.63;;;5.10;;
64342;SDS011;50675;53.530;-6.312;2023-05-07T01:20:32;11.80;;;5.00;;
64342;SDS011;50675;53.530;-6.312;2023-05-07T01:22:58;13.02;;;5.15;;
64342;SDS011;50675;53.530;-6.312;2023-05-07T01:25:26;10.52;;;5.20;;
64342;SDS011;50675;53.530;-6.312;2023-05-07T01:27:52;13.00;;;5.15;;
64342;SDS011;50675;53.530;-6.312;2023-05-07T01:30:27;9.93;;;4.55;;
64342;SDS011;50675;53.530;-6.312;2023-05-07T01:33:01;10.15;;;5.05;;
64342;SDS011;50675;53.530;-6.312;2023-05-07T01:35:37;12.23;;;5.35;;
64342;SDS011;50675;53.530;-6.312;2023-05-07T01:38:33;10.60;;;5.03;;
64342;SDS011;50675;53.530;-6.312;2023-05-07T01:41:09;13.63;;;5.82;;
64342;SDS011;50675;53.530;-6.312;2023-05-07T01:43:40;14.55;;;5.57;;
64342;SDS011;50675;53.530;-6.312;2023-05-07T01:46:11;13.25;;;5.10;;
64342;SDS011;50675;53.530;-6.312;2023-05-07T01:48:43;14.10;;;5.50;;
64342;SDS011;50675;53.530;-6.312;2023-05-07T01:51:23;13.48;;;5.57;;
64342;SDS011;50675;53.530;-6.312;2023-05-07T01:53:52;14.13;;;6.30;;
64342;SDS011;50675;53.530;-6.312;2023-05-07T01:56:19;10.98;;;5.60;;
64342;SDS011;50675;53.530;-6.312;2023-05-07T01:58:53;14.07;;;5.40;;
64342;SDS011;50675;53.530;-6.312;2023-05-07T02:01:24;13.65;;;5.40;;
64342;SDS011;50675;53.530;-6.312;2023-05-07T02:04:04;14.80;;;5.97;;
64342;SDS011;50675;53.530;-6.312;2023-05-07T02:06:30;14.15;;;6.63;;
64342;SDS011;50675;53.530;-6.312;2023-05-07T02:09:05;13.02;;;5.80;;
64342;SDS011;50675;53.530;-6.312;2023-05-07T02:11:31;12.75;;;5.70;;
64342;SDS011;50675;53.530;-6.312;2023-05-07T02:13:57;14.43;;;6.53;;
64342;SDS011;50675;53.530;-6.312;2023-05-07T02:16:23;15.82;;;6.25;;
64342;SDS011;50675;53.530;-6.312;2023-05-07T02:18:51;11.90;;;6.30;;
64342;SDS011;50675;53.530;-6.312;2023-05-07T02:21:21;13.52;;;6.45;;
64342;SDS011;50675;53.530;-6.312;2023-05-07T02:23:57;12.30;;;6.15;;
64342;SDS011;50675;53.530;-6.312;2023-05-07T02:26:31;13.32;;;6.07;;
64342;SDS011;50675;53.530;-6.312;2023-05-07T02:28:59;17.02;;;6.15;;
64342;SDS011;50675;53.530;-6.312;2023-05-07T02:31:30;14.93;;;6.05;;
64342;SDS011;50675;53.530;-6.312;2023-05-07T02:34:01;15.02;;;5.47;;
64342;SDS011;50675;53.530;-6.312;2023-05-07T02:36:27;13.80;;;5.93;;
64342;SDS011;50675;53.530;-6.312;2023-05-07T02:38:57;13.52;;;6.32;;
64342;SDS011;50675;53.530;-6.312;2023-05-07T02:41:30;10.60;;;5.10;;
64342;SDS011;50675;53.530;-6.312;2023-05-07T02:44:19;14.13;;;5.38;;
64342;SDS011;50675;53.530;-6.312;2023-05-07T02:46:47;14.85;;;5.85;;
64342;SDS011;50675;53.530;-6.312;2023-05-07T02:49:16;13.35;;;6.57;;
64342;SDS011;50675;53.530;-6.312;2023-05-07T02:51:44;13.20;;;5.82;;
64342;SDS011;50675;53.530;-6.312;2023-05-07T02:54:13;11.90;;;5.60;;
64342;SDS011;50675;53.530;-6.312;2023-05-07T02:56:45;12.95;;;5.30;;
64342;SDS011;50675;53.530;-6.312;2023-05-07T02:59:14;12.80;;;5.63;;
64342;SDS011;50675;53.530;-6.312;2023-05-07T03:04:27;12.55;;;5.60;;
64342;SDS011;50675;53.530;-6.312;2023-05-07T03:06:55;12.32;;;6.00;;
64342;SDS011;50675;53.530;-6.312;2023-05-07T03:09:24;13.32;;;5.47;;
64342;SDS011;50675;53.530;-6.312;2023-05-07T03:11:55;12.45;;;5.68;;
64342;SDS011;50675;53.530;-6.312;2023-05-07T03:14:27;12.60;;;5.82;;
64342;SDS011;50675;53.530;-6.312;2023-05-07T03:16:53;16.17;;;6.30;;
64342;SDS011;50675;53.530;-6.312;2023-05-07T03:19:19;13.50;;;5.90;;
64342;SDS011;50675;53.530;-6.312;2023-05-07T03:21:45;14.05;;;6.53;;
64342;SDS011;50675;53.530;-6.312;2023-05-07T03:24:14;15.23;;;6.30;;
64342;SDS011;50675;53.530;-6.312;2023-05-07T03:26:46;12.75;;;6.15;;
64342;SDS011;50675;53.530;-6.312;2023-05-07T03:29:20;12.77;;;6.72;;
64342;SDS011;50675;53.530;-6.312;2023-05-07T03:31:58;11.48;;;6.22;;
64342;SDS011;50675;53.530;-6.312;2023-05-07T03:34:25;11.15;;;5.63;;
64342;SDS011;50675;53.530;-6.312;2023-05-07T03:37:00;11.68;;;5.72;;
64342;SDS011;50675;53.530;-6.312;2023-05-07T03:39:44;13.05;;;5.90;;
64342;SDS011;50675;53.530;-6.312;2023-05-07T03:42:36;11.05;;;5.30;;
64342;SDS011;50675;53.530;-6.312;2023-05-07T03:45:05;12.02;;;5.40;;
64342;SDS011;50675;53.530;-6.312;2023-05-07T03:47:31;15.50;;;6.57;;
64342;SDS011;50675;53.530;-6.312;2023-05-07T03:50:03;12.05;;;5.47;;
64342;SDS011;50675;53.530;-6.312;2023-05-07T03:52:31;9.80;;;5.57;;
64342;SDS011;50675;53.530;-6.312;2023-05-07T03:55:00;11.45;;;5.20;;
64342;SDS011;50675;53.530;-6.312;2023-05-07T03:57:26;12.45;;;6.15;;
64342;SDS011;50675;53.530;-6.312;2023-05-07T03:59:52;13.43;;;5.75;;
64342;SDS011;50675;53.530;-6.312;2023-05-07T04:02:18;10.80;;;5.40;;
64342;SDS011;50675;53.530;-6.312;2023-05-07T04:04:44;14.75;;;5.68;;
64342;SDS011;50675;53.530;-6.312;2023-05-07T04:07:15;13.75;;;5.88;;
64342;SDS011;50675;53.530;-6.312;2023-05-07T04:09:46;9.48;;;5.25;;
64342;SDS011;50675;53.530;-6.312;2023-05-07T04:12:12;10.18;;;5.45;;
64342;SDS011;50675;53.530;-6.312;2023-05-07T04:14:41;13.98;;;5.30;;
64342;SDS011;50675;53.530;-6.312;2023-05-07T04:17:10;9.80;;;4.85;;
64342;SDS011;50675;53.530;-6.312;2023-05-07T04:19:36;12.48;;;5.07;;
64342;SDS011;50675;53.530;-6.312;2023-05-07T04:22:11;11.25;;;4.93;;
64342;SDS011;50675;53.530;-6.312;2023-05-07T04:24:37;11.23;;;5.05;;
64342;SDS011;50675;53.530;-6.312;2023-05-07T04:27:06;10.10;;;5.35;;
64342;SDS011;50675;53.530;-6.312;2023-05-07T04:29:35;9.02;;;4.43;;
64342;SDS011;50675;53.530;-6.312;2023-05-07T04:32:02;10.45;;;4.53;;
64342;SDS011;50675;53.530;-6.312;2023-05-07T04:34:33;10.52;;;5.32;;
64342;SDS011;50675;53.530;-6.312;2023-05-07T04:37:07;11.07;;;5.13;;
64342;SDS011;50675;53.530;-6.312;2023-05-07T04:39:52;13.48;;;5.45;;
64342;SDS011;50675;53.530;-6.312;2023-05-07T04:44:52;12.18;;;5.15;;
64342;SDS011;50675;53.530;-6.312;2023-05-07T04:47:23;12.45;;;5.00;;
64342;SDS011;50675;53.530;-6.312;2023-05-07T04:49:55;14.93;;;5.20;;
64342;SDS011;50675;53.530;-6.312;2023-05-07T04:52:25;9.18;;;4.80;;
64342;SDS011;50675;53.530;-6.312;2023-05-07T04:54:56;9.50;;;4.30;;
64342;SDS011;50675;53.530;-6.312;2023-05-07T04:57:24;11.63;;;4.78;;
64342;SDS011;50675;53.530;-6.312;2023-05-07T04:59:53;8.82;;;4.65;;
64342;SDS011;50675;53.530;-6.312;2023-05-07T05:02:19;9.60;;;4.45;;
64342;SDS011;50675;53.530;-6.312;2023-05-07T05:05:05;10.23;;;4.60;;
64342;SDS011;50675;53.530;-6.312;2023-05-07T05:07:40;10.10;;;4.65;;
64342;SDS011;50675;53.530;-6.312;2023-05-07T05:10:06;8.90;;;4.20;;
64342;SDS011;50675;53.530;-6.312;2023-05-07T05:12:32;7.95;;;4.75;;
64342;SDS011;50675;53.530;-6.312;2023-05-07T05:14:59;10.02;;;4.35;;
64342;SDS011;50675;53.530;-6.312;2023-05-07T05:17:28;9.75;;;4.18;;
64342;SDS011;50675;53.530;-6.312;2023-05-07T05:20:11;7.10;;;4.00;;
64342;SDS011;50675;53.530;-6.312;2023-05-07T05:22:47;11.20;;;5.25;;
64342;SDS011;50675;53.530;-6.312;2023-05-07T05:25:52;8.70;;;3.75;;
64342;SDS011;50675;53.530;-6.312;2023-05-07T05:31:28;11.10;;;4.05;;
64342;SDS011;50675;53.530;-6.312;2023-05-07T05:34:16;11.23;;;4.88;;
64342;SDS011;50675;53.530;-6.312;2023-05-07T05:36:55;8.63;;;4.47;;
64342;SDS011;50675;53.530;-6.312;2023-05-07T05:39:24;12.75;;;4.80;;
64342;SDS011;50675;53.530;-6.312;2023-05-07T05:47:35;8.82;;;3.92;;
64342;SDS011;50675;53.530;-6.312;2023-05-07T05:50:01;9.90;;;4.20;;
64342;SDS011;50675;53.530;-6.312;2023-05-07T05:52:27;10.25;;;4.30;;
64342;SDS011;50675;53.530;-6.312;2023-05-07T05:54:53;10.98;;;4.30;;
64342;SDS011;50675;53.530;-6.312;2023-05-07T05:57:18;11.90;;;4.85;;
64342;SDS011;50675;53.530;-6.312;2023-05-07T05:59:44;8.70;;;4.00;;
64342;SDS011;50675;53.530;-6.312;2023-05-07T06:02:11;8.13;;;4.00;;
64342;SDS011;50675;53.530;-6.312;2023-05-07T06:04:37;8.85;;;4.32;;
64342;SDS011;50675;53.530;-6.312;2023-05-07T06:07:03;8.63;;;3.45;;
64342;SDS011;50675;53.530;-6.312;2023-05-07T06:09:29;9.43;;;4.15;;
64342;SDS011;50675;53.530;-6.312;2023-05-07T06:11:54;10.75;;;4.22;;
64342;SDS011;50675;53.530;-6.312;2023-05-07T06:14:20;10.10;;;4.20;;
64342;SDS011;50675;53.530;-6.312;2023-05-07T06:16:47;10.65;;;3.95;;
64342;SDS011;50675;53.530;-6.312;2023-05-07T06:19:13;8.40;;;3.97;;
64342;SDS011;50675;53.530;-6.312;2023-05-07T06:21:39;9.32;;;4.00;;
64342;SDS011;50675;53.530;-6.312;2023-05-07T06:24:06;9.88;;;4.38;;
64342;SDS011;50675;53.530;-6.312;2023-05-07T06:26:32;9.65;;;3.75;;
64342;SDS011;50675;53.530;-6.312;2023-05-07T06:28:57;8.65;;;3.80;;
64342;SDS011;50675;53.530;-6.312;2023-05-07T06:31:29;10.15;;;3.58;;
64342;SDS011;50675;53.530;-6.312;2023-05-07T06:33:58;8.07;;;4.28;;
64342;SDS011;50675;53.530;-6.312;2023-05-07T06:36:24;6.82;;;3.33;;
64342;SDS011;50675;53.530;-6.312;2023-05-07T06:38:50;11.25;;;4.18;;
64342;SDS011;50675;53.530;-6.312;2023-05-07T06:41:15;9.30;;;3.40;;
64342;SDS011;50675;53.530;-6.312;2023-05-07T06:43:41;9.32;;;3.42;;
64342;SDS011;50675;53.530;-6.312;2023-05-07T06:46:07;8.45;;;3.80;;
64342;SDS011;50675;53.530;-6.312;2023-05-07T06:48:33;12.30;;;4.22;;
64342;SDS011;50675;53.530;-6.312;2023-05-07T06:50:58;8.23;;;3.33;;
64342;SDS011;50675;53.530;-6.312;2023-05-07T06:53:25;9.93;;;4.07;;
64342;SDS011;50675;53.530;-6.312;2023-05-07T06:55:51;7.72;;;3.60;;
64342;SDS011;50675;53.530;-6.312;2023-05-07T06:58:17;7.57;;;3.83;;
64342;SDS011;50675;53.530;-6.312;2023-05-07T07:00:43;7.95;;;3.50;;
64342;SDS011;50675;53.530;-6.312;2023-05-07T07:03:09;6.63;;;3.63;;
64342;SDS011;50675;53.530;-6.312;2023-05-07T07:05:35;8.80;;;4.00;;
64342;SDS011;50675;53.530;-6.312;2023-05-07T07:08:01;9.93;;;3.80;;
64342;SDS011;50675;53.530;-6.312;2023-05-07T07:10:29;8.50;;;3.58;;
64342;SDS011;50675;53.530;-6.312;2023-05-07T07:12:55;9.55;;;3.38;;
64342;SDS011;50675;53.530;-6.312;2023-05-07T07:15:21;6.40;;;3.30;;
64342;SDS011;50675;53.530;-6.312;2023-05-07T07:17:46;7.95;;;3.15;;
64342;SDS011;50675;53.530;-6.312;2023-05-07T07:20:13;8.15;;;2.95;;
64342;SDS011;50675;53.530;-6.312;2023-05-07T07:22:39;7.80;;;3.35;;
64342;SDS011;50675;53.530;-6.312;2023-05-07T07:25:05;9.20;;;3.33;;
64342;SDS011;50675;53.530;-6.312;2023-05-07T07:27:31;7.18;;;2.90;;
64342;SDS011;50675;53.530;-6.312;2023-05-07T07:29:57;12.25;;;3.45;;
64342;SDS011;50675;53.530;-6.312;2023-05-07T07:32:22;7.45;;;3.35;;
64342;SDS011;50675;53.530;-6.312;2023-05-07T07:34:48;6.35;;;2.67;;
64342;SDS011;50675;53.530;-6.312;2023-05-07T07:37:14;7.07;;;2.83;;
64342;SDS011;50675;53.530;-6.312;2023-05-07T07:39:40;7.50;;;3.08;;
64342;SDS011;50675;53.530;-6.312;2023-05-07T07:42:06;6.38;;;3.00;;
64342;SDS011;50675;53.530;-6.312;2023-05-07T07:44:31;5.50;;;2.40;;
64342;SDS011;50675;53.530;-6.312;2023-05-07T07:46:57;4.35;;;2.40;;
64342;SDS011;50675;53.530;-6.312;2023-05-07T07:49:23;6.45;;;2.38;;
64342;SDS011;50675;53.530;-6.312;2023-05-07T07:51:49;9.50;;;2.97;;
64342;SDS011;50675;53.530;-6.312;2023-05-07T07:54:15;8.20;;;2.90;;
64342;SDS011;50675;53.530;-6.312;2023-05-07T07:56:41;5.30;;;2.30;;
64342;SDS011;50675;53.530;-6.312;2023-05-07T07:59:06;6.05;;;2.50;;
64342;SDS011;50675;53.530;-6.312;2023-05-07T08:01:32;7.10;;;3.08;;
64342;SDS011;50675;53.530;-6.312;2023-05-07T08:03:58;7.18;;;2.08;;
64342;SDS011;50675;53.530;-6.312;2023-05-07T08:06:24;5.57;;;2.10;;
64342;SDS011;50675;53.530;-6.312;2023-05-07T08:08:51;6.35;;;2.40;;
64342;SDS011;50675;53.530;-6.312;2023-05-07T08:11:17;5.63;;;2.42;;
64342;SDS011;50675;53.530;-6.312;2023-05-07T08:13:42;5.57;;;2.50;;
64342;SDS011;50675;53.530;-6.312;2023-05-07T08:16:08;7.78;;;2.50;;
64342;SDS011;50675;53.530;-6.312;2023-05-07T08:18:34;4.40;;;2.17;;
64342;SDS011;50675;53.530;-6.312;2023-05-07T08:21:00;7.70;;;2.33;;
64342;SDS011;50675;53.530;-6.312;2023-05-07T08:23:26;4.13;;;2.10;;
64342;SDS011;50675;53.530;-6.312;2023-05-07T08:25:52;5.00;;;2.00;;
64342;SDS011;50675;53.530;-6.312;2023-05-07T08:28:18;5.43;;;2.28;;
64342;SDS011;50675;53.530;-6.312;2023-05-07T08:30:45;6.68;;;2.03;;
64342;SDS011;50675;53.530;-6.312;2023-05-07T08:33:11;6.90;;;2.22;;
64342;SDS011;50675;53.530;-6.312;2023-05-07T08:35:37;4.47;;;2.58;;
64342;SDS011;50675;53.530;-6.312;2023-05-07T08:38:03;6.60;;;2.13;;
64342;SDS011;50675;53.530;-6.312;2023-05-07T08:40:29;4.57;;;1.83;;
64342;SDS011;50675;53.530;-6.312;2023-05-07T08:43:02;6.22;;;1.83;;
64342;SDS011;50675;53.530;-6.312;2023-05-07T08:45:28;5.22;;;2.00;;
64342;SDS011;50675;53.530;-6.312;2023-05-07T08:47:58;2.88;;;1.90;;
64342;SDS011;50675;53.530;-6.312;2023-05-07T08:50:25;5.18;;;1.95;;
64342;SDS011;50675;53.530;-6.312;2023-05-07T08:52:51;4.68;;;1.95;;
64342;SDS011;50675;53.530;-6.312;2023-05-07T08:55:16;4.80;;;1.88;;
64342;SDS011;50675;53.530;-6.312;2023-05-07T08:57:42;3.85;;;1.77;;
64342;SDS011;50675;53.530;-6.312;2023-05-07T09:00:08;4.55;;;2.05;;
64342;SDS011;50675;53.530;-6.312;2023-05-07T09:02:35;3.95;;;2.05;;
64342;SDS011;50675;53.530;-6.312;2023-05-07T09:05:01;3.75;;;1.95;;
64342;SDS011;50675;53.530;-6.312;2023-05-07T09:07:27;6.15;;;1.80;;
64342;SDS011;50675;53.530;-6.312;2023-05-07T09:09:53;3.90;;;2.03;;
64342;SDS011;50675;53.530;-6.312;2023-05-07T09:12:23;4.07;;;2.00;;
64342;SDS011;50675;53.530;-6.312;2023-05-07T09:14:49;5.97;;;2.28;;
64342;SDS011;50675;53.530;-6.312;2023-05-07T09:17:16;3.28;;;2.05;;
64342;SDS011;50675;53.530;-6.312;2023-05-07T09:19:43;5.38;;;2.25;;
64342;SDS011;50675;53.530;-6.312;2023-05-07T09:22:11;4.78;;;1.90;;
64342;SDS011;50675;53.530;-6.312;2023-05-07T09:24:37;4.22;;;2.03;;
64342;SDS011;50675;53.530;-6.312;2023-05-07T09:27:12;5.13;;;1.80;;
64342;SDS011;50675;53.530;-6.312;2023-05-07T09:29:38;2.63;;;1.60;;
64342;SDS011;50675;53.530;-6.312;2023-05-07T09:32:04;3.80;;;1.80;;
64342;SDS011;50675;53.530;-6.312;2023-05-07T09:34:31;4.57;;;2.22;;
64342;SDS011;50675;53.530;-6.312;2023-05-07T09:37:04;6.28;;;2.78;;
64342;SDS011;50675;53.530;-6.312;2023-05-07T09:42:10;5.32;;;2.45;;
64342;SDS011;50675;53.530;-6.312;2023-05-07T09:44:37;8.20;;;4.35;;
64342;SDS011;50675;53.530;-6.312;2023-05-07T09:47:07;5.25;;;2.38;;
64342;SDS011;50675;53.530;-6.312;2023-05-07T09:49:34;4.55;;;2.10;;
64342;SDS011;50675;53.530;-6.312;2023-05-07T09:52:03;3.22;;;1.95;;
64342;SDS011;50675;53.530;-6.312;2023-05-07T09:54:32;7.25;;;2.20;;
64342;SDS011;50675;53.530;-6.312;2023-05-07T09:56:59;4.28;;;2.00;;
64342;SDS011;50675;53.530;-6.312;2023-05-07T09:59:27;4.40;;;2.00;;
64342;SDS011;50675;53.530;-6.312;2023-05-07T10:01:57;6.30;;;2.67;;
64342;SDS011;50675;53.530;-6.312;2023-05-07T10:04:27;4.82;;;2.67;;
64342;SDS011;50675;53.530;-6.312;2023-05-07T10:06:53;5.40;;;2.67;;
64342;SDS011;50675;53.530;-6.312;2023-05-07T10:09:21;10.15;;;3.15;;
64342;SDS011;50675;53.530;-6.312;2023-05-07T10:11:51;5.07;;;2.45;;
64342;SDS011;50675;53.530;-6.312;2023-05-07T10:14:17;6.43;;;3.00;;
64342;SDS011;50675;53.530;-6.312;2023-05-07T10:16:45;7.35;;;2.05;;
64342;SDS011;50675;53.530;-6.312;2023-05-07T10:19:13;4.85;;;2.22;;
64342;SDS011;50675;53.530;-6.312;2023-05-07T10:21:43;5.10;;;2.30;;
64342;SDS011;50675;53.530;-6.312;2023-05-07T10:24:14;4.90;;;2.58;;
64342;SDS011;50675;53.530;-6.312;2023-05-07T10:27:03;4.90;;;2.63;;
64342;SDS011;50675;53.530;-6.312;2023-05-07T10:29:43;6.50;;;2.45;;
64342;SDS011;50675;53.530;-6.312;2023-05-07T10:35:02;5.47;;;2.55;;
64342;SDS011;50675;53.530;-6.312;2023-05-07T10:37:31;8.15;;;2.97;;
64342;SDS011;50675;53.530;-6.312;2023-05-07T10:39:58;6.93;;;2.50;;
64342;SDS011;50675;53.530;-6.312;2023-05-07T10:42:24;5.18;;;2.20;;
64342;SDS011;50675;53.530;-6.312;2023-05-07T10:44:50;5.95;;;2.63;;
64342;SDS011;50675;53.530;-6.312;2023-05-07T10:47:16;5.15;;;2.53;;
64342;SDS011;50675;53.530;-6.312;2023-05-07T10:54:42;6.65;;;2.53;;
64342;SDS011;50675;53.530;-6.312;2023-05-07T10:59:56;4.13;;;2.05;;
64342;SDS011;50675;53.530;-6.312;2023-05-07T11:02:21;3.95;;;2.20;;
64342;SDS011;50675;53.530;-6.312;2023-05-07T11:05:22;10.35;;;3.05;;
64342;SDS011;50675;53.530;-6.312;2023-05-07T11:07:57;5.68;;;2.30;;
64342;SDS011;50675;53.530;-6.312;2023-05-07T11:10:47;5.43;;;2.40;;
64342;SDS011;50675;53.530;-6.312;2023-05-07T11:16:18;5.63;;;2.38;;
64342;SDS011;50675;53.530;-6.312;2023-05-07T11:18:51;4.50;;;2.05;;
64342;SDS011;50675;53.530;-6.312;2023-05-07T11:21:37;3.55;;;1.75;;
64342;SDS011;50675;53.530;-6.312;2023-05-07T11:24:12;2.95;;;1.90;;
64342;SDS011;50675;53.530;-6.312;2023-05-07T11:26:42;6.65;;;2.03;;
64342;SDS011;50675;53.530;-6.312;2023-05-07T11:29:17;5.78;;;2.25;;
64342;SDS011;50675;53.530;-6.312;2023-05-07T11:31:47;4.82;;;1.80;;
64342;SDS011;50675;53.530;-6.312;2023-05-07T11:34:20;4.65;;;2.03;;
64342;SDS011;50675;53.530;-6.312;2023-05-07T11:36:47;3.55;;;1.48;;
64342;SDS011;50675;53.530;-6.312;2023-05-07T11:39:23;5.47;;;1.83;;
64342;SDS011;50675;53.530;-6.312;2023-05-07T11:41:54;3.35;;;1.67;;
64342;SDS011;50675;53.530;-6.312;2023-05-07T11:44:20;3.50;;;2.10;;
64342;SDS011;50675;53.530;-6.312;2023-05-07T11:46:45;5.45;;;1.80;;
64342;SDS011;50675;53.530;-6.312;2023-05-07T11:49:11;3.30;;;1.63;;
64342;SDS011;50675;53.530;-6.312;2023-05-07T11:51:37;6.38;;;1.90;;
64342;SDS011;50675;53.530;-6.312;2023-05-07T11:54:05;3.78;;;1.73;;
64342;SDS011;50675;53.530;-6.312;2023-05-07T11:56:34;6.53;;;2.03;;
64342;SDS011;50675;53.530;-6.312;2023-05-07T11:59:04;4.72;;;2.03;;
64342;SDS011;50675;53.530;-6.312;2023-05-07T12:01:30;5.35;;;1.88;;
64342;SDS011;50675;53.530;-6.312;2023-05-07T12:03:56;5.50;;;1.80;;
64342;SDS011;50675;53.530;-6.312;2023-05-07T12:06:21;4.32;;;1.90;;
64342;SDS011;50675;53.530;-6.312;2023-05-07T12:08:47;3.95;;;1.92;;
64342;SDS011;50675;53.530;-6.312;2023-05-07T12:11:21;5.97;;;2.20;;
64342;SDS011;50675;53.530;-6.312;2023-05-07T13:38:41;4.97;;;3.10;;
64342;SDS011;50675;53.530;-6.312;2023-05-07T13:41:07;6.35;;;2.75;;
64342;SDS011;50675;53.530;-6.312;2023-05-07T13:43:33;7.10;;;2.88;;
64342;SDS011;50675;53.530;-6.312;2023-05-07T13:45:59;5.57;;;2.47;;
64342;SDS011;50675;53.530;-6.312;2023-05-07T13:48:26;6.85;;;2.90;;
64342;SDS011;50675;53.530;-6.312;2023-05-07T13:50:51;2.72;;;1.80;;
64342;SDS011;50675;53.530;-6.312;2023-05-07T13:53:17;4.78;;;2.20;;
64342;SDS011;50675;53.530;-6.312;2023-05-07T13:55:44;4.90;;;1.92;;
64342;SDS011;50675;53.530;-6.312;2023-05-07T13:58:12;3.10;;;1.63;;
64342;SDS011;50675;53.530;-6.312;2023-05-07T14:00:38;5.03;;;1.58;;
64342;SDS011;50675;53.530;-6.312;2023-05-07T14:03:04;2.28;;;1.67;;
64342;SDS011;50675;53.530;-6.312;2023-05-07T14:05:30;2.75;;;1.63;;
64342;SDS011;50675;53.530;-6.312;2023-05-07T14:07:56;4.80;;;2.00;;
64342;SDS011;50675;53.530;-6.312;2023-05-07T14:10:23;6.22;;;2.30;;
64342;SDS011;50675;53.530;-6.312;2023-05-07T14:12:49;2.88;;;1.73;;
64342;SDS011;50675;53.530;-6.312;2023-05-07T14:15:15;2.33;;;1.80;;
64342;SDS011;50675;53.530;-6.312;2023-05-07T14:17:42;5.85;;;2.00;;
64342;SDS011;50675;53.530;-6.312;2023-05-07T14:20:08;3.60;;;1.77;;
64342;SDS011;50675;53.530;-6.312;2023-05-07T14:22:36;3.00;;;1.83;;
64342;SDS011;50675;53.530;-6.312;2023-05-07T14:25:02;8.50;;;2.92;;
64342;SDS011;50675;53.530;-6.312;2023-05-07T14:27:27;5.35;;;2.03;;
64342;SDS011;50675;53.530;-6.312;2023-05-07T14:29:53;3.63;;;1.83;;
64342;SDS011;50675;53.530;-6.312;2023-05-07T14:32:19;2.00;;;1.80;;
64342;SDS011;50675;53.530;-6.312;2023-05-07T14:34:45;3.47;;;1.65;;
64342;SDS011;50675;53.530;-6.312;2023-05-07T14:37:11;5.43;;;1.90;;
64342;SDS011;50675;53.530;-6.312;2023-05-07T14:39:37;5.70;;;1.73;;
64342;SDS011;50675;53.530;-6.312;2023-05-07T14:42:06;2.35;;;1.40;;
64342;SDS011;50675;53.530;-6.312;2023-05-07T14:44:34;4.85;;;1.58;;
64342;SDS011;50675;53.530;-6.312;2023-05-07T14:47:00;3.38;;;1.80;;
64342;SDS011;50675;53.530;-6.312;2023-05-07T14:49:30;5.75;;;1.95;;
64342;SDS011;50675;53.530;-6.312;2023-05-07T14:51:57;4.82;;;1.98;;
64342;SDS011;50675;53.530;-6.312;2023-05-07T14:54:25;4.53;;;1.70;;
64342;SDS011;50675;53.530;-6.312;2023-05-07T14:56:51;2.67;;;1.77;;
64342;SDS011;50675;53.530;-6.312;2023-05-07T14:59:18;6.43;;;1.92;;
64342;SDS011;50675;53.530;-6.312;2023-05-07T15:01:48;3.65;;;1.83;;
64342;SDS011;50675;53.530;-6.312;2023-05-07T15:04:14;3.72;;;1.90;;
64342;SDS011;50675;53.530;-6.312;2023-05-07T15:06:40;3.90;;;2.00;;
64342;SDS011;50675;53.530;-6.312;2023-05-07T15:09:06;3.70;;;1.80;;
64342;SDS011;50675;53.530;-6.312;2023-05-07T15:11:45;2.95;;;1.70;;
64342;SDS011;50675;53.530;-6.312;2023-05-07T15:14:11;4.18;;;1.85;;
64342;SDS011;50675;53.530;-6.312;2023-05-07T15:16:37;5.38;;;1.95;;
64342;SDS011;50675;53.530;-6.312;2023-05-07T15:19:02;5.07;;;1.98;;
64342;SDS011;50675;53.530;-6.312;2023-05-07T15:21:28;5.43;;;2.08;;
64342;SDS011;50675;53.530;-6.312;2023-05-07T15:23:56;6.43;;;2.05;;
64342;SDS011;50675;53.530;-6.312;2023-05-07T15:26:22;4.53;;;3.10;;
64342;SDS011;50675;53.530;-6.312;2023-05-07T15:28:47;4.32;;;1.75;;
64342;SDS011;50675;53.530;-6.312;2023-05-07T15:31:14;5.88;;;1.85;;
64342;SDS011;50675;53.530;-6.312;2023-05-07T15:33:40;8.13;;;2.30;;
64342;SDS011;50675;53.530;-6.312;2023-05-07T15:36:06;2.70;;;1.50;;
64342;SDS011;50675;53.530;-6.312;2023-05-07T15:38:36;5.57;;;1.88;;
64342;SDS011;50675;53.530;-6.312;2023-05-07T15:41:02;4.97;;;1.45;;
64342;SDS011;50675;53.530;-6.312;2023-05-07T15:43:28;3.20;;;1.70;;
64342;SDS011;50675;53.530;-6.312;2023-05-07T15:45:54;4.30;;;1.80;;
64342;SDS011;50675;53.530;-6.312;2023-05-07T15:48:20;4.00;;;1.75;;
64342;SDS011;50675;53.530;-6.312;2023-05-07T15:50:46;3.67;;;1.73;;
64342;SDS011;50675;53.530;-6.312;2023-05-07T15:53:12;3.80;;;2.50;;
64342;SDS011;50675;53.530;-6.312;2023-05-07T15:55:39;7.72;;;1.70;;
64342;SDS011;50675;53.530;-6.312;2023-05-07T15:58:07;7.25;;;1.92;;
64342;SDS011;50675;53.530;-6.312;2023-05-07T16:00:33;5.50;;;2.22;;
64342;SDS011;50675;53.530;-6.312;2023-05-07T16:03:00;5.50;;;1.90;;
64342;SDS011;50675;53.530;-6.312;2023-05-07T16:05:26;7.15;;;2.38;;
64342;SDS011;50675;53.530;-6.312;2023-05-07T16:07:53;4.47;;;1.83;;
64342;SDS011;50675;53.530;-6.312;2023-05-07T16:10:19;5.95;;;1.92;;
64342;SDS011;50675;53.530;-6.312;2023-05-07T16:12:45;4.68;;;2.00;;
64342;SDS011;50675;53.530;-6.312;2023-05-07T16:15:10;6.68;;;2.05;;
64342;SDS011;50675;53.530;-6.312;2023-05-07T16:17:36;4.95;;;2.05;;
64342;SDS011;50675;53.530;-6.312;2023-05-07T16:20:02;4.38;;;1.92;;
64342;SDS011;50675;53.530;-6.312;2023-05-07T16:22:31;2.17;;;1.60;;
64342;SDS011;50675;53.530;-6.312;2023-05-07T16:24:57;4.03;;;2.00;;
64342;SDS011;50675;53.530;-6.312;2023-05-07T16:27:29;2.92;;;1.67;;
64342;SDS011;50675;53.530;-6.312;2023-05-07T16:29:55;6.05;;;2.28;;
64342;SDS011;50675;53.530;-6.312;2023-05-07T16:35:59;5.03;;;1.77;;
64342;SDS011;50675;53.530;-6.312;2023-05-07T16:38:27;5.35;;;1.75;;
64342;SDS011;50675;53.530;-6.312;2023-05-07T16:40:57;3.90;;;1.90;;
64342;SDS011;50675;53.530;-6.312;2023-05-07T16:43:23;8.77;;;2.22;;
64342;SDS011;50675;53.530;-6.312;2023-05-07T16:45:49;6.78;;;2.03;;
64342;SDS011;50675;53.530;-6.312;2023-05-07T16:48:16;5.15;;;1.90;;
64342;SDS011;50675;53.530;-6.312;2023-05-07T16:50:42;4.85;;;1.90;;
64342;SDS011;50675;53.530;-6.312;2023-05-07T16:53:09;6.32;;;1.70;;
64342;SDS011;50675;53.530;-6.312;2023-05-07T16:55:38;4.50;;;2.10;;